Terminal Aerodrome Forecast
Issued by NWS Memphis, TN

Home | Current Version | Previous Version | Text Only | Print | Product List | Glossary On
Versions: 1 2 3 4 5 6 7 8 9 10 11 12 13
729
FTUS44 KMEG 131121
TAFJBR
TAF
KJBR 131121Z 1312/1412 04010G15KT P6SM BKN100
     FM132000 07006KT P6SM FEW060 BKN100
     FM140700 08010KT P6SM SCT045 OVC060
     FM141100 09012KT P6SM VCSH SCT030 OVC045=

USA.gov is the U.S. government's official web portal to all federal, state and local government web resources and services.